Time;durP1;ratioP1;P1;durP2;ratioP2;P2;SDS_P1;SDS_P2;PMS_P1;PMS_P2;Temp;Humidity;BMP_temperature;BMP_pressure;BME280_temperature;BME280_humidity;BME280_pressure;Samples;Min_cycle;Max_cycle;Signal;HPM_P1;HPM_P2
2022/06/23 00:02:07;;;;;;;1999.90;999.90;;;16.70;99.90;;;;;;5053149;28;20032;-84
2022/06/23 00:04:38;;;;;;;1999.90;999.90;;;16.70;99.90;;;;;;5060126;28;20032;-84
2022/06/23 00:07:05;;;;;;;;;;;16.60;99.90;;;;;;5051325;28;20028;-84
2022/06/23 00:09:36;;;;;;;1999.90;999.90;;;16.60;99.90;;;;;;5060928;28;19916;-83
2022/06/23 00:12:18;;;;;;;1999.90;999.90;;;16.60;99.90;;;;;;5057271;28;20082;-84
2022/06/23 00:14:45;;;;;;;1999.90;999.90;;;16.50;99.90;;;;;;5052551;28;20056;-84
2022/06/23 00:17:24;;;;;;;1999.90;999.90;;;16.50;99.90;;;;;;5053397;28;20429;-84
2022/06/23 00:19:50;;;;;;;1999.90;999.90;;;16.50;99.90;;;;;;5045652;28;20033;-84
2022/06/23 00:22:18;;;;;;;1999.90;999.90;;;16.50;99.90;;;;;;5051940;28;20136;-85
2022/06/23 00:24:48;;;;;;;1999.90;999.90;;;16.40;99.90;;;;;;5068522;28;20032;-84
2022/06/23 00:27:16;;;;;;;1999.90;999.90;;;16.40;99.90;;;;;;5055082;28;20033;-83
2022/06/23 00:29:45;;;;;;;1999.90;999.90;;;16.40;99.90;;;;;;5053036;28;20492;-84
2022/06/23 00:32:12;;;;;;;1999.90;999.90;;;16.50;99.90;;;;;;5054530;28;20563;-84
2022/06/23 00:34:41;;;;;;;1999.90;999.90;;;16.50;99.90;;;;;;5060948;28;20052;-84
2022/06/23 00:37:14;;;;;;;1999.90;999.90;;;16.50;99.90;;;;;;5061880;28;20527;-83
2022/06/23 00:39:43;;;;;;;1999.90;999.90;;;16.50;99.90;;;;;;5061418;28;20039;-83
2022/06/23 00:42:40;;;;;;;1999.90;999.90;;;16.50;99.90;;;;;;5057991;28;20028;-85
2022/06/23 00:45:13;;;;;;;1999.90;999.90;;;16.60;99.90;;;;;;5054008;28;20499;-84
2022/06/23 00:47:56;;;;;;;1999.90;999.90;;;16.60;99.90;;;;;;5053619;28;20067;-84
2022/06/23 00:50:35;;;;;;;1999.90;999.90;;;16.80;99.90;;;;;;5070725;28;20030;-83
2022/06/23 00:53:14;;;;;;;1999.90;999.90;;;16.70;99.90;;;;;;5053773;28;20025;-84
2022/06/23 00:55:51;;;;;;;1999.90;999.90;;;16.60;99.90;;;;;;5048135;28;20021;-84
2022/06/23 00:58:53;;;;;;;1999.90;999.90;;;16.50;99.90;;;;;;5053608;28;20021;-83
2022/06/23 01:01:24;;;;;;;1999.90;999.90;;;16.30;99.90;;;;;;5063210;28;20029;-83
2022/06/23 01:03:59;;;;;;;1999.90;999.90;;;16.30;99.90;;;;;;5060816;28;20028;-83
2022/06/23 01:06:40;;;;;;;1999.90;999.90;;;16.20;99.90;;;;;;5080395;28;20028;-85
2022/06/23 01:09:12;;;;;;;1999.90;999.90;;;16.10;99.90;;;;;;5058263;28;20037;-84
2022/06/23 01:11:53;;;;;;;1999.90;999.90;;;16.00;99.90;;;;;;5055452;28;20033;-84
2022/06/23 01:14:24;;;;;;;1999.90;999.90;;;16.00;99.90;;;;;;5060949;28;20797;-84
2022/06/23 01:17:01;;;;;;;1999.90;999.90;;;16.00;99.90;;;;;;5060573;28;20033;-84
2022/06/23 01:19:45;;;;;;;1999.90;999.90;;;15.90;99.90;;;;;;5059624;28;20025;-84
2022/06/23 01:22:34;;;;;;;1999.90;999.90;;;15.90;99.90;;;;;;5056839;28;20021;-84
2022/06/23 01:25:22;;;;;;;1999.90;999.90;;;15.80;99.90;;;;;;5065592;28;20052;-84
2022/06/23 01:28:01;;;;;;;1999.90;999.90;;;15.80;99.90;;;;;;5049796;28;20047;-82
2022/06/23 01:30:34;;;;;;;1999.90;999.90;;;15.80;99.90;;;;;;5050452;28;20178;-81
2022/06/23 01:33:17;;;;;;;1999.90;999.90;;;15.70;99.90;;;;;;5056763;28;20016;-82
2022/06/23 01:36:01;;;;;;;1999.90;999.90;;;15.60;99.90;;;;;;5057321;28;20025;-81
2022/06/23 01:38:46;;;;;;;1999.90;999.90;;;15.60;99.90;;;;;;5082022;28;20020;-85
2022/06/23 01:41:21;;;;;;;1999.90;999.90;;;15.60;99.90;;;;;;5064625;28;20024;-84
2022/06/23 01:43:59;;;;;;;1999.90;999.90;;;15.50;99.90;;;;;;5062801;28;20108;-84
2022/06/23 01:46:39;;;;;;;1999.90;999.90;;;15.50;99.90;;;;;;5057131;28;20744;-85
2022/06/23 01:49:18;;;;;;;1999.90;999.90;;;15.40;99.90;;;;;;5072570;28;20025;-84
2022/06/23 01:51:52;;;;;;;1999.90;999.90;;;15.50;99.90;;;;;;5054798;28;20029;-85
2022/06/23 01:54:25;;;;;;;1999.90;999.90;;;15.40;99.90;;;;;;5056072;28;20029;-84
2022/06/23 01:57:20;;;;;;;1999.90;999.90;;;15.30;99.90;;;;;;5051902;28;20504;-84
2022/06/23 01:59:55;;;;;;;1999.90;999.90;;;15.30;99.90;;;;;;5055384;28;20037;-85
2022/06/23 02:02:32;;;;;;;1999.90;999.90;;;15.30;99.90;;;;;;5060361;28;20059;-84
2022/06/23 02:05:21;;;;;;;1999.90;999.90;;;15.20;99.90;;;;;;5079962;28;20141;-85
2022/06/23 02:07:58;;;;;;;1999.90;999.90;;;15.20;99.90;;;;;;5074877;28;20029;-84
2022/06/23 02:10:51;;;;;;;1999.90;999.90;;;15.10;99.90;;;;;;5061021;28;20052;-83
2022/06/23 02:13:28;;;;;;;1999.90;999.90;;;15.20;99.90;;;;;;5064714;28;20041;-84
2022/06/23 02:16:19;;;;;;;1999.90;999.90;;;15.20;99.90;;;;;;5058191;28;20056;-83
2022/06/23 02:19:11;;;;;;;1999.90;999.90;;;15.10;99.90;;;;;;5058648;28;20110;-84
2022/06/23 02:21:46;;;;;;;1999.90;999.90;;;15.10;99.90;;;;;;5044882;28;20044;-84
2022/06/23 02:24:17;;;;;;;1999.90;999.90;;;15.10;99.90;;;;;;5052014;28;20039;-84
2022/06/23 02:26:58;;;;;;;1999.90;999.90;;;15.10;99.90;;;;;;5056618;28;20036;-84
2022/06/23 02:29:35;;;;;;;1999.90;999.90;;;15.00;99.90;;;;;;5050713;28;20029;-84
2022/06/23 02:32:22;;;;;;;1999.90;999.90;;;15.00;99.90;;;;;;5061094;28;20122;-84
2022/06/23 02:35:08;;;;;;;1999.90;999.90;;;15.00;99.90;;;;;;5060251;28;20025;-84
2022/06/23 02:37:43;;;;;;;1999.90;999.90;;;15.00;99.90;;;;;;5060384;28;20116;-84
2022/06/23 02:40:21;;;;;;;1999.90;999.90;;;15.00;99.90;;;;;;5059404;28;20024;-85
2022/06/23 02:42:58;;;;;;;1999.90;999.90;;;15.00;99.90;;;;;;5060788;28;20033;-84
2022/06/23 02:46:01;;;;;;;1999.90;999.90;;;14.80;99.90;;;;;;5057233;28;20079;-84
2022/06/23 02:48:41;;;;;;;1999.90;999.90;;;14.80;99.90;;;;;;5036981;28;20024;-84
2022/06/23 02:51:19;;;;;;;1999.90;999.90;;;14.80;99.90;;;;;;5055202;28;20021;-86
2022/06/23 02:54:05;;;;;;;1999.90;999.90;;;14.70;99.90;;;;;;5070067;28;20120;-84
2022/06/23 02:56:43;;;;;;;1999.90;999.90;;;14.60;99.90;;;;;;5051134;28;20037;-84
2022/06/23 02:59:19;;;;;;;1999.90;999.90;;;14.70;99.90;;;;;;5046492;28;20496;-84
2022/06/23 03:02:18;;;;;;;1999.90;999.90;;;14.70;99.90;;;;;;5054361;28;20045;-84
2022/06/23 03:04:52;;;;;;;1999.90;999.90;;;14.70;99.90;;;;;;5054618;28;20197;-84
2022/06/23 03:07:26;;;;;;;1999.90;999.90;;;14.80;99.90;;;;;;5055964;28;20111;-84
2022/06/23 03:10:34;;;;;;;1999.90;999.90;;;14.80;99.90;;;;;;5062096;28;20040;-86
2022/06/23 03:13:14;;;;;;;1999.90;999.90;;;14.80;99.90;;;;;;5059459;28;20028;-84
2022/06/23 03:16:02;;;;;;;1999.90;999.90;;;14.90;99.90;;;;;;5059315;28;20074;-83
2022/06/23 03:18:32;;;;;;;1999.90;999.90;;;14.80;99.90;;;;;;5058534;28;20088;-83
2022/06/23 03:21:12;;;;;;;1999.90;999.90;;;14.80;99.90;;;;;;5056082;28;20032;-85
2022/06/23 03:23:43;;;;;;;1999.90;999.90;;;14.80;99.90;;;;;;5051685;28;20026;-84
2022/06/23 03:26:34;;;;;;;1999.90;999.90;;;14.80;99.90;;;;;;5056799;28;20036;-84
2022/06/23 03:29:15;;;;;;;1999.90;999.90;;;14.80;99.90;;;;;;5054018;28;20104;-84
2022/06/23 03:31:50;;;;;;;1999.90;999.90;;;14.80;99.90;;;;;;5054600;28;20037;-83
2022/06/23 03:34:26;;;;;;;1999.90;999.90;;;14.90;99.90;;;;;;5062459;28;20028;-85
2022/06/23 03:37:03;;;;;;;1999.90;999.90;;;14.90;99.90;;;;;;5062706;28;20066;-84
2022/06/23 03:42:56;;;;;;;1999.90;999.90;;;15.00;99.90;;;;;;5060574;28;20094;-83
2022/06/23 03:45:32;;;;;;;1999.90;999.90;;;15.00;99.90;;;;;;5062278;28;20033;-87
2022/06/23 03:48:36;;;;;;;1999.90;999.90;;;15.10;99.90;;;;;;5057464;28;20139;-84
2022/06/23 03:51:30;;;;;;;1999.90;999.90;;;15.10;99.90;;;;;;5043324;28;20028;-84
2022/06/23 03:54:13;;;;;;;1999.90;999.90;;;15.10;99.90;;;;;;5054141;28;20398;-84
2022/06/23 03:56:47;;;;;;;1999.90;999.90;;;15.20;99.90;;;;;;5052931;28;20198;-84
2022/06/23 03:59:17;;;;;;;1999.90;999.90;;;15.20;99.90;;;;;;5054489;28;20495;-84
2022/06/23 04:01:54;;;;;;;1999.90;999.90;;;15.30;99.90;;;;;;5060946;28;20036;-84
2022/06/23 04:04:40;;;;;;;1999.90;999.90;;;15.40;99.90;;;;;;5079871;28;20549;-83
2022/06/23 04:07:29;;;;;;;1999.90;999.90;;;15.40;99.90;;;;;;5045927;28;20063;-84
2022/06/23 04:10:41;;;;;;;1999.90;999.90;;;15.50;99.90;;;;;;5046620;28;20058;-83
2022/06/23 04:13:31;;;;;;;1999.90;999.90;;;15.40;99.90;;;;;;5054969;28;20036;-85
2022/06/23 04:16:06;;;;;;;1999.90;999.90;;;15.40;99.90;;;;;;5069410;28;20037;-84
2022/06/23 04:18:32;;;;;;;1999.90;999.90;;;15.50;99.90;;;;;;5055633;28;20089;-84
2022/06/23 04:21:02;;;;;;;1999.90;999.90;;;15.50;99.90;;;;;;5055919;28;20043;-85
2022/06/23 04:23:40;;;;;;;1999.90;999.90;;;15.50;99.90;;;;;;5051758;28;20065;-83
2022/06/23 04:26:22;;;;;;;1999.90;999.90;;;15.60;99.90;;;;;;5052501;28;20032;-84
2022/06/23 04:28:53;;;;;;;1999.90;999.90;;;15.60;99.90;;;;;;5047858;28;20025;-84
2022/06/23 04:31:25;;;;;;;1999.90;999.90;;;15.60;99.90;;;;;;5056007;28;20513;-84
2022/06/23 04:33:53;;;;;;;1999.90;999.90;;;15.60;99.90;;;;;;5060921;28;20029;-84
2022/06/23 04:36:31;;;;;;;1999.90;999.90;;;15.60;99.90;;;;;;5056065;28;20033;-85
2022/06/23 04:39:08;;;;;;;1999.90;999.90;;;15.60;99.90;;;;;;5058289;28;20031;-84
2022/06/23 04:41:48;;;;;;;1999.90;999.90;;;15.40;99.90;;;;;;5053939;28;20110;-85
2022/06/23 04:44:22;;;;;;;1999.90;999.90;;;15.40;99.90;;;;;;5053522;28;20526;-85
2022/06/23 04:46:54;;;;;;;1999.90;999.90;;;15.40;99.90;;;;;;5053435;28;20112;-84
2022/06/23 04:49:43;;;;;;;1999.90;999.90;;;15.40;99.90;;;;;;5057093;28;20020;-85
2022/06/23 04:52:12;;;;;;;1999.90;999.90;;;15.50;99.90;;;;;;5049149;28;20650;-84
2022/06/23 04:54:54;;;;;;;1999.90;999.90;;;15.70;99.90;;;;;;5052356;28;20532;-83
2022/06/23 04:57:29;;;;;;;1999.90;999.90;;;15.70;99.90;;;;;;5053342;28;20043;-88
2022/06/23 04:59:58;;;;;;;1999.90;999.90;;;15.80;99.90;;;;;;5068451;28;20279;-85
2022/06/23 05:02:31;;;;;;;1999.90;999.90;;;16.10;99.90;;;;;;5066813;28;20139;-84
2022/06/23 05:05:15;;;;;;;1999.90;999.90;;;16.10;99.90;;;;;;5064948;28;20112;-84
2022/06/23 05:08:07;;;;;;;1999.90;999.90;;;16.30;99.90;;;;;;5076360;28;20104;-84
2022/06/23 05:10:50;;;;;;;1999.90;999.90;;;16.40;99.90;;;;;;5062534;28;20115;-84
2022/06/23 05:13:20;;;;;;;1999.90;999.90;;;16.40;99.90;;;;;;5058187;28;20672;-89
2022/06/23 05:16:01;;;;;;;1999.90;999.90;;;16.50;99.90;;;;;;5055568;28;20024;-92
2022/06/23 05:18:31;;;;;;;1999.90;999.90;;;16.50;99.90;;;;;;5061071;28;20037;-95
2022/06/23 05:21:12;;;;;;;1999.90;999.90;;;16.70;99.90;;;;;;5052535;28;20025;-88
2022/06/23 05:24:18;;;;;;;1999.90;999.90;;;16.70;99.90;;;;;;5049749;28;20041;-93
2022/06/23 05:26:55;;;;;;;1999.90;999.90;;;16.90;99.90;;;;;;5023795;28;20041;-87
2022/06/23 05:29:42;;;;;;;1999.90;999.90;;;17.00;99.90;;;;;;5044524;28;20036;-90
2022/06/23 05:32:21;;;;;;;1999.90;999.90;;;17.10;99.90;;;;;;5056917;28;20029;-84
2022/06/23 05:35:07;;;;;;;1999.90;999.90;;;17.10;99.90;;;;;;5068786;28;20033;-86
2022/06/23 05:37:37;;;;;;;1999.90;999.90;;;17.20;99.90;;;;;;5059307;28;20028;-89
2022/06/23 05:40:12;;;;;;;1999.90;999.90;;;17.30;99.90;;;;;;5052567;28;20029;-90
2022/06/23 05:42:42;;;;;;;1999.90;999.90;;;17.30;99.90;;;;;;5054262;28;20036;-92
2022/06/23 05:45:13;;;;;;;;;;;17.30;99.90;;;;;;5041795;28;20120;-83
2022/06/23 05:47:39;;;;;;;1999.90;999.90;;;17.30;99.90;;;;;;5067559;28;19919;-84
2022/06/23 05:50:08;;;;;;;1999.90;999.90;;;17.30;99.90;;;;;;5050884;28;20029;-83
2022/06/23 05:52:45;;;;;;;1999.90;999.90;;;17.40;99.90;;;;;;5044955;28;20500;-82
2022/06/23 05:55:26;;;;;;;1999.90;999.90;;;17.50;99.90;;;;;;5043776;28;20076;-82
2022/06/23 05:58:30;;;;;;;1999.90;999.90;;;17.70;99.90;;;;;;5057019;28;20567;-83
2022/06/23 06:01:17;;;;;;;1999.90;999.90;;;17.80;99.90;;;;;;5033614;28;20497;-83
2022/06/23 06:03:55;;;;;;;1999.90;999.90;;;17.80;99.90;;;;;;5052562;28;20313;-83
2022/06/23 06:06:21;;;;;;;1999.90;999.90;;;17.90;99.90;;;;;;5053282;28;20024;-82
2022/06/23 06:11:41;;;;;;;1999.90;999.90;;;18.10;99.90;;;;;;5055681;28;20450;-83
2022/06/23 06:14:09;;;;;;;1999.90;999.90;;;18.30;99.90;;;;;;5054909;28;20423;-83
2022/06/23 06:16:34;;;;;;;1999.90;999.90;;;18.40;99.90;;;;;;5034857;28;20037;-81
2022/06/23 06:19:00;;;;;;;1999.90;999.90;;;18.40;99.90;;;;;;5049268;28;20079;-81
2022/06/23 06:21:26;;;;;;;1999.90;999.90;;;18.40;99.90;;;;;;5069201;28;20686;-81
2022/06/23 06:23:59;;;;;;;1999.90;999.90;;;18.40;99.90;;;;;;5049644;28;20065;-82
2022/06/23 06:26:30;;;;;;;1999.90;999.90;;;18.60;99.90;;;;;;5041964;28;20083;-82
2022/06/23 06:29:04;;;;;;;1999.90;999.90;;;18.60;99.90;;;;;;5043338;28;20021;-81
2022/06/23 06:31:35;;;;;;;1999.90;999.90;;;18.60;99.90;;;;;;5061316;28;20032;-81
2022/06/23 06:34:32;;;;;;;1999.90;999.90;;;18.70;99.90;;;;;;5080001;28;20033;-81
2022/06/23 06:36:58;;;;;;;1999.90;999.90;;;18.80;99.90;;;;;;5062664;28;20032;-81
2022/06/23 06:39:40;;;;;;;1999.90;999.90;;;18.90;99.90;;;;;;5057622;28;20043;-82
2022/06/23 06:42:34;;;;;;;1999.90;999.90;;;19.00;99.90;;;;;;5052517;28;20325;-82
2022/06/23 06:45:04;;;;;;;1999.90;999.90;;;19.10;99.90;;;;;;5057116;28;20565;-83
2022/06/23 06:47:33;;;;;;;1999.90;999.90;;;19.20;99.90;;;;;;5055369;28;20039;-82
2022/06/23 06:50:05;;;;;;;1999.90;999.90;;;19.30;99.90;;;;;;5052359;28;20032;-82
2022/06/23 06:52:31;;;;;;;1999.90;999.90;;;19.30;99.90;;;;;;5051228;28;20033;-82
2022/06/23 06:55:08;;;;;;;1999.90;999.90;;;19.50;99.90;;;;;;5052858;28;20101;-82
2022/06/23 06:57:49;;;;;;;1519.57;755.03;;;19.50;99.90;;;;;;5050370;28;20555;-82
2022/06/23 07:00:29;;;;;;;1999.90;999.90;;;19.50;99.90;;;;;;5039933;28;20044;-82
2022/06/23 07:03:04;;;;;;;1999.90;999.90;;;19.70;99.90;;;;;;5053245;28;20573;-82
2022/06/23 07:05:48;;;;;;;1999.90;999.90;;;19.80;99.90;;;;;;5049534;28;20115;-82
2022/06/23 07:08:57;;;;;;;1999.90;999.90;;;19.90;99.90;;;;;;5048802;28;20124;-82
2022/06/23 07:11:26;;;;;;;1999.90;999.90;;;20.00;99.90;;;;;;5041655;28;20048;-83
2022/06/23 07:13:55;;;;;;;1999.90;999.90;;;20.20;99.90;;;;;;5045857;28;20028;-83
2022/06/23 07:16:42;;;;;;;1999.90;999.90;;;20.10;99.90;;;;;;5052319;28;20063;-83
2022/06/23 07:19:26;;;;;;;1999.90;999.90;;;20.30;99.90;;;;;;5048173;28;20090;-82
2022/06/23 07:22:03;;;;;;;1999.90;999.90;;;20.30;99.90;;;;;;5050491;28;20242;-84
2022/06/23 07:25:00;;;;;;;1999.90;999.90;;;20.50;99.90;;;;;;5050303;28;20072;-82
2022/06/23 07:27:46;;;;;;;1999.90;999.90;;;20.50;99.90;;;;;;5046176;28;20021;-83
2022/06/23 07:30:21;;;;;;;1999.90;999.90;;;20.50;99.90;;;;;;5050412;28;20036;-82
2022/06/23 07:32:49;;;;;;;1999.90;999.90;;;20.70;99.90;;;;;;5057809;28;20261;-83
2022/06/23 07:35:48;;;;;;;1999.90;999.90;;;20.70;99.90;;;;;;5058518;28;20032;-82
2022/06/23 07:38:41;;;;;;;1999.90;999.90;;;20.80;99.90;;;;;;5049636;28;20105;-83
2022/06/23 07:41:18;;;;;;;1999.90;999.90;;;21.00;99.90;;;;;;5048260;28;20526;-82
2022/06/23 07:43:53;;;;;;;1999.90;999.90;;;21.00;99.90;;;;;;5052203;28;20040;-82
2022/06/23 07:46:18;;;;;;;1999.90;999.90;;;21.20;99.90;;;;;;5055235;28;20031;-82
2022/06/23 07:48:45;;;;;;;1999.90;999.90;;;21.30;99.90;;;;;;5051449;28;20037;-82
2022/06/23 07:51:11;;;;;;;1999.90;999.90;;;21.60;99.90;;;;;;5050895;28;20024;-81
2022/06/23 07:53:47;;;;;;;1999.90;999.90;;;21.60;99.90;;;;;;5047351;28;20135;-82
2022/06/23 07:56:15;;;;;;;1999.90;999.90;;;21.80;99.90;;;;;;5039415;28;20033;-82
2022/06/23 07:58:43;;;;;;;1999.90;999.90;;;21.90;99.90;;;;;;5039323;28;20036;-82
2022/06/23 08:01:17;;;;;;;1999.90;999.90;;;21.80;99.90;;;;;;5055167;28;20039;-82
2022/06/23 08:04:13;;;;;;;1999.90;999.90;;;22.10;99.90;;;;;;5069820;28;20029;-83
2022/06/23 08:06:39;;;;;;;1999.90;999.90;;;22.30;99.90;;;;;;5057953;28;20515;-83
2022/06/23 08:09:21;;;;;;;1999.90;999.90;;;22.30;97.40;;;;;;5056648;28;20051;-82
2022/06/23 08:14:35;;;;;;;1999.90;999.90;;;22.50;95.80;;;;;;5045194;28;20081;-83
2022/06/23 08:17:06;;;;;;;1999.90;999.90;;;22.50;99.40;;;;;;5046399;28;20033;-83
2022/06/23 08:19:45;;;;;;;;;;;22.40;99.50;;;;;;5048559;28;20031;-82
2022/06/23 08:22:15;;;;;;;1999.90;999.90;;;22.60;97.50;;;;;;5043691;28;19944;-82
2022/06/23 08:24:45;;;;;;;1999.90;999.90;;;22.90;93.50;;;;;;5050399;28;20041;-83
2022/06/23 08:27:20;;;;;;;1999.90;999.90;;;23.10;92.70;;;;;;5043339;28;20480;-82
2022/06/23 08:29:53;;;;;;;1999.90;999.90;;;23.00;95.00;;;;;;5038392;28;20096;-84
2022/06/23 08:32:19;;;;;;;1999.90;999.90;;;23.10;92.00;;;;;;5054285;28;20062;-82
2022/06/23 08:35:05;;;;;;;1999.90;999.90;;;23.30;90.30;;;;;;5054055;28;20028;-82
2022/06/23 08:38:01;;;;;;;1999.90;999.90;;;23.30;88.00;;;;;;5054612;28;20044;-84
2022/06/23 08:41:04;;;;;;;1999.90;999.90;;;23.30;84.80;;;;;;5057493;28;20037;-82
2022/06/23 08:43:46;;;;;;;1999.90;999.90;;;23.30;84.80;;;;;;5053714;28;20116;-82
2022/06/23 08:46:34;;;;;;;1999.90;999.90;;;23.60;85.30;;;;;;5054011;28;20052;-83
2022/06/23 08:49:00;;;;;;;1999.90;999.90;;;23.70;84.50;;;;;;5052346;28;20025;-82
2022/06/23 08:51:35;;;;;;;1999.90;999.90;;;24.10;82.50;;;;;;5047052;28;20467;-82
2022/06/23 08:54:07;;;;;;;1255.00;553.72;;;24.30;90.80;;;;;;5039017;28;20032;-83
2022/06/23 08:56:43;;;;;;;1999.90;999.90;;;24.00;86.50;;;;;;5040532;28;20024;-82
2022/06/23 08:59:37;;;;;;;1999.90;999.90;;;23.80;81.90;;;;;;5038408;28;20040;-83
2022/06/23 09:02:24;;;;;;;1127.03;535.65;;;23.80;81.60;;;;;;5066854;28;20227;-83
2022/06/23 09:05:01;;;;;;;1999.90;999.90;;;23.90;79.90;;;;;;5048741;28;20078;-82
2022/06/23 09:07:32;;;;;;;1999.90;999.90;;;24.30;79.70;;;;;;5051764;28;20057;-83
2022/06/23 09:10:15;;;;;;;1999.90;999.90;;;24.80;76.30;;;;;;5071626;28;20041;-82
2022/06/23 09:12:48;;;;;;;1999.90;999.90;;;24.60;87.80;;;;;;5046224;28;20124;-83
2022/06/23 09:15:33;;;;;;;1999.90;999.90;;;24.80;77.20;;;;;;5049580;28;20024;-82
2022/06/23 09:18:14;;;;;;;1677.00;803.70;;;25.00;78.90;;;;;;5044986;28;20032;-82
2022/06/23 09:20:49;;;;;;;1999.90;999.90;;;25.30;83.30;;;;;;5044127;28;20037;-82
2022/06/23 09:23:33;;;;;;;1999.90;999.90;;;25.50;77.60;;;;;;5045652;28;20079;-83
2022/06/23 09:26:22;;;;;;;1999.90;999.90;;;25.50;68.30;;;;;;5046509;28;20029;-83
2022/06/23 09:28:54;;;;;;;1999.90;999.90;;;25.40;69.00;;;;;;5043092;28;20032;-82
2022/06/23 09:31:32;;;;;;;1999.90;999.90;;;25.90;60.30;;;;;;5054819;28;20064;-82
2022/06/23 09:34:03;;;;;;;1999.90;999.90;;;25.90;60.20;;;;;;5057595;28;20029;-82
2022/06/23 09:36:34;;;;;;;1999.90;999.90;;;25.90;66.40;;;;;;5062611;28;20033;-83
2022/06/23 09:39:37;;;;;;;1999.90;999.90;;;26.20;64.80;;;;;;5060129;28;20053;-82
2022/06/23 09:42:25;;;;;;;1999.90;999.90;;;25.80;62.10;;;;;;5060287;28;20496;-82
2022/06/23 09:45:23;;;;;;;1999.90;999.90;;;25.90;67.80;;;;;;5054541;28;20043;-82
2022/06/23 09:48:10;;;;;;;1999.90;999.90;;;26.40;61.10;;;;;;5051519;28;20039;-82
2022/06/23 09:51:15;;;;;;;1999.90;999.90;;;26.90;61.70;;;;;;5047252;28;20016;-82
2022/06/23 09:53:58;;;;;;;1999.90;999.90;;;26.80;66.80;;;;;;5023008;28;20099;-83
2022/06/23 09:56:48;;;;;;;1999.90;999.90;;;26.20;67.60;;;;;;5067830;28;20463;-82
2022/06/23 09:59:35;;;;;;;1999.90;999.90;;;26.10;74.40;;;;;;5044947;28;20056;-83
2022/06/23 10:02:04;;;;;;;1999.90;999.90;;;26.00;63.30;;;;;;5058194;28;20816;-83
2022/06/23 10:04:59;;;;;;;1999.90;999.90;;;26.30;65.00;;;;;;5059229;28;20075;-83
2022/06/23 10:07:39;;;;;;;1999.90;999.90;;;26.50;67.30;;;;;;5059103;28;20059;-83
2022/06/23 10:10:29;;;;;;;1999.90;999.90;;;26.50;62.50;;;;;;5051185;28;20075;-83
2022/06/23 10:13:17;;;;;;;1999.90;999.90;;;26.50;63.00;;;;;;5067222;28;20035;-82
2022/06/23 10:16:03;;;;;;;1999.90;999.90;;;26.60;60.80;;;;;;5050436;28;20048;-83
2022/06/23 10:18:48;;;;;;;887.80;157.20;;;26.90;63.40;;;;;;5057160;28;20337;-82
2022/06/23 10:21:42;;;;;;;1999.90;999.90;;;26.80;64.30;;;;;;5050955;28;20116;-83
2022/06/23 10:24:28;;;;;;;1144.22;250.55;;;27.50;56.90;;;;;;5031353;28;20041;-84
2022/06/23 10:27:05;;;;;;;1999.90;999.90;;;27.20;62.80;;;;;;5049466;28;20388;-83
2022/06/23 10:29:55;;;;;;;1867.07;855.33;;;27.30;58.50;;;;;;5048373;28;20031;-81
2022/06/23 10:32:37;;;;;;;;;;;27.60;60.60;;;;;;5055602;28;20135;-84
2022/06/23 10:35:33;;;;;;;1126.10;330.38;;;27.70;62.80;;;;;;5073694;28;20010;-84
2022/06/23 10:38:24;;;;;;;1999.90;999.90;;;27.80;61.30;;;;;;5059739;28;20029;-84
2022/06/23 10:41:15;;;;;;;1615.47;443.23;;;28.00;62.00;;;;;;5047555;28;20024;-85
2022/06/23 10:43:44;;;;;;;1757.00;801.15;;;28.10;63.20;;;;;;5052010;28;20047;-83
2022/06/23 10:46:20;;;;;;;1999.90;988.05;;;28.00;55.50;;;;;;5050015;28;20027;-82
2022/06/23 10:49:01;;;;;;;1231.20;269.05;;;28.10;64.60;;;;;;5050129;28;20028;-84
2022/06/23 10:51:41;;;;;;;1799.63;653.38;;;28.20;55.60;;;;;;5053167;28;20029;-82
2022/06/23 10:54:34;;;;;;;1999.90;976.47;;;28.30;53.10;;;;;;5065904;28;20025;-88
2022/06/23 10:57:18;;;;;;;1999.90;727.85;;;28.20;54.60;;;;;;5054230;28;20039;-82
2022/06/23 10:59:58;;;;;;;1999.90;921.13;;;28.40;55.30;;;;;;5045971;28;20376;-82
2022/06/23 11:03:01;;;;;;;1999.90;999.90;;;28.60;53.60;;;;;;5074591;28;20040;-87
2022/06/23 11:05:38;;;;;;;1999.90;685.17;;;28.70;47.80;;;;;;5062646;28;20140;-88
2022/06/23 11:08:42;;;;;;;1999.90;998.90;;;29.50;44.90;;;;;;5059476;28;20021;-87
2022/06/23 11:11:26;;;;;;;1999.90;999.90;;;29.20;50.70;;;;;;5054621;28;20044;-86
2022/06/23 11:14:07;;;;;;;1999.90;999.90;;;29.50;48.80;;;;;;5049825;28;20028;-87
2022/06/23 11:16:45;;;;;;;1999.90;999.90;;;29.30;50.50;;;;;;5057120;28;20514;-87
2022/06/23 11:19:33;;;;;;;1999.90;993.15;;;30.30;45.10;;;;;;5053830;28;20517;-87
2022/06/23 11:22:08;;;;;;;1999.90;999.90;;;30.90;43.80;;;;;;5054454;28;20029;-87
2022/06/23 11:24:44;;;;;;;1999.90;999.90;;;31.60;44.80;;;;;;5048009;28;20495;-87
2022/06/23 11:27:35;;;;;;;1999.90;999.90;;;31.50;40.70;;;;;;5051917;28;20063;-91
2022/06/23 11:30:06;;;;;;;1681.05;999.90;;;33.00;40.90;;;;;;5055267;28;20028;-87
2022/06/23 11:32:51;;;;;;;1975.93;999.90;;;32.20;39.70;;;;;;5055291;28;20029;-85
2022/06/23 11:35:35;;;;;;;1972.55;999.90;;;32.30;41.30;;;;;;5055117;28;20056;-82
2022/06/23 11:38:23;;;;;;;1750.22;999.90;;;31.10;42.90;;;;;;5057324;28;20029;-82
2022/06/23 11:41:10;;;;;;;1766.13;999.90;;;31.30;44.40;;;;;;5046322;28;20052;-82
2022/06/23 11:43:45;;;;;;;1997.72;999.90;;;32.20;41.70;;;;;;5056539;28;20476;-83
2022/06/23 11:46:38;;;;;;;1592.13;999.90;;;32.30;36.60;;;;;;5049640;28;20949;-82
2022/06/23 11:49:45;;;;;;;1754.50;999.90;;;32.20;36.20;;;;;;5053173;28;20041;-83
2022/06/23 11:52:36;;;;;;;1139.82;999.90;;;31.30;38.50;;;;;;5042262;28;20032;-82
2022/06/23 11:55:17;;;;;;;1106.38;986.35;;;29.80;40.60;;;;;;5047758;28;20044;-82
2022/06/23 11:58:13;;;;;;;1041.05;939.13;;;30.20;45.60;;;;;;5044375;28;20070;-82
2022/06/23 12:01:14;;;;;;;1195.13;999.90;;;31.70;38.40;;;;;;5053084;28;20037;-82
2022/06/23 12:04:11;;;;;;;1068.22;955.00;;;32.40;35.20;;;;;;5053125;28;20040;-83
2022/06/23 12:06:54;;;;;;;1186.80;999.90;;;33.10;36.00;;;;;;5054619;28;20023;-83
2022/06/23 12:09:26;;;;;;;1080.53;970.83;;;33.10;34.50;;;;;;5054091;28;20075;-82
2022/06/23 12:11:51;;;;;;;1033.93;931.70;;;32.80;38.30;;;;;;5057622;28;20039;-82
2022/06/23 12:14:18;;;;;;;1186.63;999.90;;;32.80;34.90;;;;;;5054891;28;20037;-81
2022/06/23 12:17:06;;;;;;;1091.65;980.03;;;33.60;34.30;;;;;;5048463;28;20034;-83
2022/06/23 12:19:49;;;;;;;1274.07;999.90;;;34.70;34.70;;;;;;5047390;28;20492;-80
2022/06/23 12:22:31;;;;;;;954.42;870.30;;;33.90;33.80;;;;;;5049999;28;20354;-82
2022/06/23 12:25:19;;;;;;;1432.72;999.90;;;33.70;31.50;;;;;;5038905;28;20114;-82
2022/06/23 12:28:16;;;;;;;1224.78;999.90;;;33.90;34.00;;;;;;5047089;28;20051;-86
2022/06/23 12:30:49;;;;;;;1055.90;942.85;;;32.80;30.00;;;;;;5059955;28;20050;-83
2022/06/23 12:33:27;;;;;;;1106.70;992.88;;;32.60;35.90;;;;;;5054726;28;20033;-83
2022/06/23 12:36:15;;;;;;;1277.47;999.90;;;33.10;32.70;;;;;;5051820;28;20044;-82
2022/06/23 12:38:55;;;;;;;1197.90;979.30;;;33.70;30.10;;;;;;5050704;28;20040;-83
2022/06/23 12:41:47;;;;;;;999.35;902.42;;;33.80;30.20;;;;;;5053565;28;20038;-82
2022/06/23 12:44:17;;;;;;;1108.82;989.42;;;33.70;33.30;;;;;;5047480;28;20108;-82
2022/06/23 12:46:56;;;;;;;975.15;882.58;;;34.10;30.20;;;;;;5050552;28;20310;-83
2022/06/23 12:49:37;;;;;;;1014.63;914.45;;;33.70;32.20;;;;;;5050919;28;20025;-83
2022/06/23 12:52:17;;;;;;;1108.35;984.88;;;34.20;28.80;;;;;;5047347;28;20136;-82
2022/06/23 12:54:43;;;;;;;1056.80;947.03;;;35.60;28.30;;;;;;5047979;28;20029;-82
2022/06/23 12:57:34;;;;;;;1058.22;948.47;;;35.80;27.30;;;;;;5046497;28;20093;-82
2022/06/23 13:00:06;;;;;;;1104.30;983.00;;;37.00;25.60;;;;;;5044660;28;20399;-82
2022/06/23 13:02:47;;;;;;;1062.93;952.28;;;36.30;25.10;;;;;;5059373;28;20048;-82
2022/06/23 13:05:31;;;;;;;1078.70;961.67;;;35.70;27.40;;;;;;5053294;28;20043;-83
2022/06/23 13:08:03;;;;;;;1061.07;949.03;;;35.70;25.60;;;;;;5047303;28;20021;-83
2022/06/23 13:10:36;;;;;;;967.95;875.33;;;35.90;26.10;;;;;;5058176;28;20055;-82
2022/06/23 13:13:25;;;;;;;1035.97;926.15;;;35.80;27.50;;;;;;5053177;28;20568;-84